createdAt,value
2022-10-19T00:00:49.174Z,2.88
2022-10-19T00:03:20.689Z,3.13
2022-10-19T00:05:49.989Z,3.42
2022-10-19T00:08:16.807Z,6.10
2022-10-19T00:10:43.660Z,6.85
2022-10-19T00:13:10.607Z,5.18
2022-10-19T00:15:41.455Z,3.83
2022-10-19T00:18:09.407Z,7.67
2022-10-19T00:20:37.435Z,11.82
2022-10-19T00:23:04.504Z,14.63
2022-10-19T00:25:31.283Z,17.48
2022-10-19T00:27:58.106Z,11.30
2022-10-19T00:30:24.997Z,9.43
2022-10-19T00:32:51.875Z,7.65
2022-10-19T00:35:18.749Z,3.83
2022-10-19T00:37:45.630Z,2.28
2022-10-19T00:40:12.574Z,1.50
2022-10-19T00:42:39.530Z,1.15
2022-10-19T00:45:15.739Z,0.68
2022-10-19T00:47:44.866Z,0.60
2022-10-19T00:50:14.407Z,0.82
2022-10-19T00:52:41.677Z,0.57
2022-10-19T00:55:09.418Z,1.05
2022-10-19T00:57:36.588Z,0.80
2022-10-19T01:00:06.881Z,0.80
2022-10-19T01:02:34.496Z,0.73
2022-10-19T01:05:02.056Z,0.70
2022-10-19T01:07:29.109Z,0.75
2022-10-19T01:09:56.474Z,0.60
2022-10-19T01:12:44.587Z,0.80
2022-10-19T01:15:38.482Z,0.90
2022-10-19T01:18:18.499Z,0.73
2022-10-19T01:21:12.539Z,0.90
2022-10-19T01:24:10.199Z,1.10
2022-10-19T01:26:58.321Z,0.95
2022-10-19T01:29:55.935Z,0.75
2022-10-19T01:32:52.267Z,0.70
2022-10-19T01:36:10.431Z,0.60
2022-10-19T01:39:03.555Z,0.65
2022-10-19T01:42:07.378Z,0.82
2022-10-19T01:44:57.134Z,1.25
2022-10-19T01:47:27.712Z,1.08
2022-10-19T01:50:02.085Z,0.70
2022-10-19T01:52:29.781Z,0.60
2022-10-19T01:54:59.797Z,0.47
2022-10-19T01:57:35.321Z,0.45
2022-10-19T02:00:07.566Z,0.60
2022-10-19T02:02:37.071Z,0.50
2022-10-19T02:05:05.912Z,0.60
2022-10-19T02:07:34.273Z,0.50
2022-10-19T02:10:01.369Z,0.40
2022-10-19T02:12:31.130Z,0.60
2022-10-19T02:15:02.204Z,0.40
2022-10-19T02:17:34.590Z,0.50
2022-10-19T02:20:03.330Z,0.60
2022-10-19T02:22:31.383Z,0.60
2022-10-19T02:24:58.666Z,0.93
2022-10-19T02:27:25.797Z,0.60
2022-10-19T02:29:53.959Z,0.60
2022-10-19T02:32:21.588Z,0.60
2022-10-19T02:34:48.489Z,0.50
2022-10-19T02:37:15.450Z,0.68
2022-10-19T02:39:42.632Z,0.60
2022-10-19T02:42:15.056Z,0.68
2022-10-19T02:44:56.035Z,0.70
2022-10-19T02:47:29.481Z,0.50
2022-10-19T02:49:56.403Z,0.70
2022-10-19T02:52:23.362Z,0.50
2022-10-19T02:54:50.280Z,0.55
2022-10-19T02:57:23.946Z,0.70
2022-10-19T02:59:51.856Z,0.60
2022-10-19T03:02:19.921Z,0.50
2022-10-19T03:07:21.045Z,0.70
2022-10-19T03:09:47.988Z,0.80
2022-10-19T03:12:15.550Z,0.80
2022-10-19T03:14:42.799Z,0.70
2022-10-19T03:17:10.290Z,0.60
2022-10-19T03:19:37.857Z,0.70
2022-10-19T03:22:05.129Z,0.60
2022-10-19T03:24:32.179Z,0.80
2022-10-19T03:26:59.049Z,0.70
2022-10-19T03:29:25.890Z,0.60
2022-10-19T03:31:52.902Z,0.70
2022-10-19T03:34:19.675Z,0.70
2022-10-19T03:36:46.580Z,0.60
2022-10-19T03:39:15.401Z,0.90
2022-10-19T03:41:42.909Z,1.30
2022-10-19T03:44:10.902Z,0.63
2022-10-19T03:46:38.077Z,0.80
2022-10-19T03:49:05.456Z,0.70
2022-10-19T03:51:33.537Z,0.88
2022-10-19T03:54:07.034Z,1.02
2022-10-19T03:56:35.432Z,0.60
2022-10-19T03:59:04.673Z,0.60
2022-10-19T04:01:32.898Z,0.50
2022-10-19T04:04:02.018Z,0.85
2022-10-19T04:06:34.551Z,0.52
2022-10-19T04:09:02.965Z,0.70
2022-10-19T04:11:31.464Z,0.82
2022-10-19T04:13:59.573Z,0.70
2022-10-19T04:16:27.802Z,0.65
2022-10-19T04:18:55.029Z,0.73
2022-10-19T04:21:26.151Z,1.20
2022-10-19T04:23:57.165Z,0.50
2022-10-19T04:26:24.130Z,0.70
2022-10-19T04:28:50.986Z,0.57
2022-10-19T04:31:17.901Z,0.82
2022-10-19T04:36:13.092Z,0.80
2022-10-19T04:38:40.374Z,0.50
2022-10-19T04:41:12.785Z,0.60
2022-10-19T04:43:40.130Z,0.75
2022-10-19T04:46:09.862Z,0.75
2022-10-19T04:48:38.359Z,0.65
2022-10-19T04:51:06.097Z,0.80
2022-10-19T04:53:34.358Z,1.15
2022-10-19T04:56:05.016Z,1.10
2022-10-19T04:58:31.932Z,1.23
2022-10-19T05:00:59.099Z,1.05
2022-10-19T05:03:25.931Z,1.17
2022-10-19T05:05:52.836Z,1.35
2022-10-19T05:08:19.666Z,1.10
2022-10-19T05:10:47.783Z,1.50
2022-10-19T05:13:15.099Z,1.20
2022-10-19T05:15:42.511Z,1.05
2022-10-19T05:18:24.676Z,1.10
2022-10-19T05:20:51.844Z,1.42
2022-10-19T05:23:19.267Z,1.50
2022-10-19T05:25:46.225Z,1.40
2022-10-19T05:28:13.072Z,1.10
2022-10-19T05:30:39.920Z,1.27
2022-10-19T05:33:06.739Z,1.00
2022-10-19T05:35:33.715Z,0.70
2022-10-19T05:38:00.500Z,1.10
2022-10-19T05:40:27.672Z,0.90
2022-10-19T05:42:54.802Z,1.08
2022-10-19T05:45:21.613Z,1.10
2022-10-19T05:47:48.507Z,0.98
2022-10-19T05:50:15.495Z,1.90
2022-10-19T05:52:42.311Z,1.38
2022-10-19T05:55:09.685Z,1.20
2022-10-19T05:57:36.928Z,1.00
2022-10-19T06:00:05.134Z,1.00
2022-10-19T06:02:32.349Z,1.08
2022-10-19T06:04:59.518Z,1.13
2022-10-19T06:07:26.363Z,1.20
2022-10-19T06:09:53.216Z,1.05
2022-10-19T06:12:24.250Z,0.93
2022-10-19T06:14:52.262Z,1.02
2022-10-19T06:17:19.144Z,0.90
2022-10-19T06:19:45.933Z,1.58
2022-10-19T06:22:12.717Z,1.17
2022-10-19T06:24:39.558Z,0.93
2022-10-19T06:27:07.062Z,1.20
2022-10-19T06:29:33.971Z,1.42
2022-10-19T06:32:00.921Z,1.70
2022-10-19T06:34:27.784Z,1.20
2022-10-19T06:36:54.668Z,0.80
2022-10-19T06:39:21.573Z,0.70
2022-10-19T06:41:48.433Z,0.85
2022-10-19T06:44:15.281Z,1.10
2022-10-19T06:46:42.147Z,1.10
2022-10-19T06:49:13.608Z,1.40
2022-10-19T06:51:40.756Z,2.13
2022-10-19T06:54:08.324Z,1.05
2022-10-19T06:56:35.249Z,1.08
2022-10-19T06:59:02.213Z,0.93
2022-10-19T07:01:29.266Z,0.65
2022-10-19T07:03:56.231Z,0.80
2022-10-19T07:06:23.984Z,1.27
2022-10-19T07:08:52.433Z,1.02
2022-10-19T07:11:22.355Z,1.25
2022-10-19T07:13:49.295Z,0.93
2022-10-19T07:16:21.092Z,0.80
2022-10-19T07:18:50.383Z,0.77
2022-10-19T07:21:19.006Z,1.05
2022-10-19T07:23:47.468Z,0.60
2022-10-19T07:26:15.921Z,0.95
2022-10-19T07:28:45.467Z,1.40
2022-10-19T07:31:15.066Z,1.50
2022-10-19T07:33:41.911Z,1.15
2022-10-19T07:36:10.478Z,0.90
2022-10-19T07:38:37.683Z,1.48
2022-10-19T07:41:10.160Z,1.10
2022-10-19T07:43:37.076Z,1.35
2022-10-19T07:46:08.222Z,1.00
2022-10-19T07:48:35.721Z,1.10
2022-10-19T07:51:05.384Z,0.60
2022-10-19T07:53:32.815Z,0.60
2022-10-19T07:56:10.708Z,0.60
2022-10-19T07:58:37.765Z,1.63
2022-10-19T08:01:07.229Z,1.35
2022-10-19T08:06:22.329Z,0.60
2022-10-19T08:08:50.164Z,0.90
2022-10-19T08:11:29.152Z,1.40
2022-10-19T08:13:58.744Z,1.10
2022-10-19T08:16:36.499Z,1.13
2022-10-19T08:19:07.232Z,0.90
2022-10-19T08:21:35.439Z,0.80
2022-10-19T08:24:02.292Z,0.95
2022-10-19T08:26:30.946Z,1.30
2022-10-19T08:29:25.588Z,0.60
2022-10-19T08:31:54.687Z,0.80
2022-10-19T08:34:21.681Z,0.80
2022-10-19T08:36:48.532Z,0.70
2022-10-19T08:39:17.862Z,0.82
2022-10-19T08:41:52.167Z,0.70
2022-10-19T08:44:30.538Z,0.90
2022-10-19T08:47:23.765Z,0.77
2022-10-19T08:49:51.232Z,0.60
2022-10-19T08:52:34.673Z,0.70
2022-10-19T08:55:15.140Z,0.60
2022-10-19T08:58:26.205Z,0.68
2022-10-19T09:01:33.934Z,0.50
2022-10-19T09:04:28.666Z,1.02
2022-10-19T09:07:23.438Z,0.82
2022-10-19T09:09:58.316Z,0.90
2022-10-19T09:12:32.103Z,0.77
2022-10-19T09:15:06.071Z,1.00
2022-10-19T09:17:33.682Z,0.60
2022-10-19T09:20:22.478Z,0.73
2022-10-19T09:23:00.303Z,0.55
2022-10-19T09:25:29.243Z,0.68
2022-10-19T09:28:06.690Z,0.50
2022-10-19T09:30:37.761Z,0.55
2022-10-19T09:33:06.158Z,0.50
2022-10-19T09:35:39.337Z,0.60
2022-10-19T09:38:07.818Z,0.68
2022-10-19T09:40:35.563Z,0.93
2022-10-19T09:43:19.604Z,1.55
2022-10-19T09:45:49.490Z,1.00
2022-10-19T09:48:35.606Z,1.17
2022-10-19T09:51:10.521Z,0.75
2022-10-19T09:53:37.752Z,0.85
2022-10-19T09:56:08.968Z,1.02
2022-10-19T09:58:36.202Z,0.82
2022-10-19T10:01:03.587Z,1.83
2022-10-19T10:03:36.132Z,1.15
2022-10-19T10:06:07.132Z,1.05
2022-10-19T10:08:44.813Z,0.68
2022-10-19T10:11:15.180Z,0.52
2022-10-19T10:13:48.115Z,0.70
2022-10-19T10:16:17.225Z,0.60
2022-10-19T10:19:06.336Z,0.77
2022-10-19T10:21:45.544Z,0.85
2022-10-19T10:24:18.090Z,0.77
2022-10-19T10:26:50.807Z,0.82
2022-10-19T10:29:18.199Z,0.60
2022-10-19T10:31:50.148Z,0.82
2022-10-19T10:34:45.329Z,0.60
2022-10-19T10:37:36.918Z,0.65
2022-10-19T10:40:06.482Z,0.80
2022-10-19T10:42:44.948Z,0.55
2022-10-19T10:45:36.453Z,0.70
2022-10-19T10:48:47.719Z,0.65
2022-10-19T10:51:34.050Z,0.80
2022-10-19T10:54:18.490Z,0.70
2022-10-19T10:57:18.602Z,0.85
2022-10-19T10:59:57.324Z,0.70
2022-10-19T11:02:49.192Z,0.70
2022-10-19T11:05:26.786Z,0.70
2022-10-19T11:08:07.251Z,0.60
2022-10-19T11:10:41.668Z,0.70
2022-10-19T11:13:31.020Z,0.63
2022-10-19T11:16:13.908Z,0.63
2022-10-19T11:18:52.012Z,0.85
2022-10-19T11:21:42.232Z,0.70
2022-10-19T11:24:24.115Z,1.25
2022-10-19T11:27:15.947Z,0.68
2022-10-19T11:30:13.989Z,0.50
2022-10-19T11:32:49.909Z,0.70
2022-10-19T11:35:41.526Z,0.80
2022-10-19T11:38:27.384Z,0.70
2022-10-19T11:41:18.936Z,0.85
2022-10-19T11:44:10.558Z,1.10
2022-10-19T11:46:58.805Z,0.82
2022-10-19T11:49:53.070Z,0.68
2022-10-19T11:52:56.817Z,0.80
2022-10-19T11:55:44.482Z,0.77
2022-10-19T11:58:23.264Z,0.80
2022-10-19T12:01:22.150Z,0.60
2022-10-19T12:04:01.540Z,1.55
2022-10-19T12:06:43.339Z,0.50
2022-10-19T12:11:53.206Z,0.80
2022-10-19T12:14:27.712Z,0.90
2022-10-19T12:16:58.615Z,0.68
2022-10-19T12:19:30.150Z,0.50
2022-10-19T12:22:02.679Z,0.52
2022-10-19T12:24:32.537Z,0.68
2022-10-19T12:27:01.045Z,0.85
2022-10-19T12:29:37.791Z,0.52
2022-10-19T12:32:05.911Z,0.80
2022-10-19T12:35:03.237Z,0.63
2022-10-19T12:37:45.862Z,0.60
2022-10-19T12:40:34.087Z,0.70
2022-10-19T12:43:15.111Z,0.80
2022-10-19T12:45:48.378Z,0.70
2022-10-19T12:48:21.028Z,0.60
2022-10-19T12:50:52.529Z,0.80
2022-10-19T12:53:38.327Z,0.85
2022-10-19T12:56:11.760Z,1.17
2022-10-19T12:58:48.178Z,0.60
2022-10-19T13:01:29.301Z,0.52
2022-10-19T13:04:15.055Z,1.60
2022-10-19T13:06:45.951Z,1.25
2022-10-19T13:09:32.513Z,0.60
2022-10-19T13:12:22.264Z,0.70
2022-10-19T13:14:54.328Z,0.60
2022-10-19T13:17:50.043Z,0.40
2022-10-19T13:20:16.900Z,0.47
2022-10-19T13:23:05.975Z,0.60
2022-10-19T13:25:34.275Z,0.90
2022-10-19T13:28:06.901Z,0.70
2022-10-19T13:30:39.303Z,0.90
2022-10-19T13:33:33.268Z,1.60
2022-10-19T13:36:00.356Z,0.70
2022-10-19T13:38:41.272Z,0.73
2022-10-19T13:41:28.506Z,0.70
2022-10-19T13:44:02.144Z,1.05
2022-10-19T13:46:28.931Z,0.65
2022-10-19T13:49:01.682Z,0.98
2022-10-19T13:51:46.945Z,0.75
2022-10-19T13:54:51.544Z,0.77
2022-10-19T13:57:23.013Z,0.77
2022-10-19T14:00:05.586Z,1.10
2022-10-19T14:02:50.965Z,0.80
2022-10-19T14:05:42.191Z,0.70
2022-10-19T14:08:33.697Z,0.60
2022-10-19T14:11:16.435Z,0.80
2022-10-19T14:13:43.721Z,0.60
2022-10-19T14:16:21.081Z,0.90
2022-10-19T14:18:55.787Z,0.80
2022-10-19T14:21:33.889Z,1.50
2022-10-19T14:24:00.975Z,0.85
2022-10-19T14:26:31.022Z,0.90
2022-10-19T14:28:59.983Z,0.80
2022-10-19T14:31:36.340Z,0.70
2022-10-19T14:34:07.614Z,1.02
2022-10-19T14:36:39.296Z,0.70
2022-10-19T14:41:36.456Z,1.15
2022-10-19T14:44:34.575Z,1.00
2022-10-19T14:47:02.408Z,0.82
2022-10-19T14:49:29.262Z,0.77
2022-10-19T14:52:02.298Z,1.25
2022-10-19T14:54:36.638Z,0.90
2022-10-19T14:57:18.989Z,1.20
2022-10-19T14:59:47.933Z,1.30
2022-10-19T15:02:33.673Z,1.77
2022-10-19T15:05:03.869Z,1.30
2022-10-19T15:07:42.488Z,0.77
2022-10-19T15:10:37.664Z,0.88
2022-10-19T15:13:06.723Z,1.23
2022-10-19T15:15:35.671Z,0.85
2022-10-19T15:18:04.512Z,1.25
2022-10-19T15:20:49.361Z,1.92
2022-10-19T15:23:42.467Z,1.63
2022-10-19T15:26:27.046Z,0.88
2022-10-19T15:28:56.016Z,0.90
2022-10-19T15:31:28.742Z,0.80
2022-10-19T15:34:01.376Z,1.05
2022-10-19T15:36:30.318Z,1.10
2022-10-19T15:39:18.371Z,1.50
2022-10-19T15:41:51.645Z,1.45
2022-10-19T15:44:42.100Z,1.33
2022-10-19T15:47:15.100Z,1.23
2022-10-19T15:49:41.963Z,1.45
2022-10-19T15:52:19.678Z,1.25
2022-10-19T15:54:57.802Z,0.85
2022-10-19T15:57:35.263Z,0.90
2022-10-19T16:00:17.250Z,1.20
2022-10-19T16:05:11.543Z,1.00
2022-10-19T16:07:40.850Z,1.05
2022-10-19T16:10:13.274Z,1.02
2022-10-19T16:12:40.400Z,0.90
2022-10-19T16:15:07.682Z,0.68
2022-10-19T16:17:34.818Z,1.17
2022-10-19T16:20:01.886Z,1.30
2022-10-19T16:22:28.892Z,0.80
2022-10-19T16:24:55.737Z,0.88
2022-10-19T16:27:22.609Z,0.88
2022-10-19T16:29:49.502Z,1.05
2022-10-19T16:32:16.956Z,0.80
2022-10-19T16:34:43.832Z,0.95
2022-10-19T16:37:10.644Z,0.80
2022-10-19T16:39:37.691Z,0.90
2022-10-19T16:42:04.653Z,1.10
2022-10-19T16:44:32.121Z,1.98
2022-10-19T16:46:59.617Z,1.17
2022-10-19T16:49:26.837Z,1.30
2022-10-19T16:51:57.207Z,1.20
2022-10-19T16:54:34.954Z,1.20
2022-10-19T16:57:05.751Z,0.93
2022-10-19T16:59:36.202Z,1.30
2022-10-19T17:02:03.074Z,0.93
2022-10-19T17:04:30.321Z,0.90
2022-10-19T17:06:57.733Z,1.00
2022-10-19T17:09:42.268Z,0.75
2022-10-19T17:12:10.250Z,1.27
2022-10-19T17:14:40.042Z,0.80
2022-10-19T17:17:07.455Z,0.77
2022-10-19T17:19:34.455Z,0.80
2022-10-19T17:22:02.978Z,0.90
2022-10-19T17:24:30.336Z,0.75
2022-10-19T17:26:57.393Z,0.90
2022-10-19T17:29:24.579Z,1.27
2022-10-19T17:31:52.050Z,1.40
2022-10-19T17:34:19.292Z,0.98
2022-10-19T17:36:47.366Z,1.08
2022-10-19T17:39:25.844Z,1.10
2022-10-19T17:41:57.563Z,1.00
2022-10-19T17:44:24.562Z,0.82
2022-10-19T17:46:51.570Z,0.90
2022-10-19T17:49:21.396Z,1.40
2022-10-19T17:51:48.408Z,1.73
2022-10-19T17:54:15.748Z,1.00
2022-10-19T17:56:45.483Z,1.98
2022-10-19T17:59:12.928Z,2.50
2022-10-19T18:01:39.921Z,1.20
2022-10-19T18:04:06.951Z,3.10
2022-10-19T18:06:36.785Z,2.25
2022-10-19T18:09:06.381Z,2.75
2022-10-19T18:11:37.329Z,1.17
2022-10-19T18:14:05.201Z,1.52
2022-10-19T18:16:39.175Z,1.20
2022-10-19T18:19:06.962Z,1.52
2022-10-19T18:21:40.064Z,1.83
2022-10-19T18:24:12.748Z,1.85
2022-10-19T18:26:42.467Z,3.20
2022-10-19T18:29:16.515Z,3.42
2022-10-19T18:31:43.604Z,3.22
2022-10-19T18:34:15.261Z,7.85
2022-10-19T18:39:10.648Z,1.65
2022-10-19T18:41:38.541Z,2.53
2022-10-19T18:44:06.926Z,1.63
2022-10-19T18:46:36.280Z,2.72
2022-10-19T18:49:06.885Z,5.25
2022-10-19T18:51:34.226Z,1.48
2022-10-19T18:54:01.185Z,1.23
2022-10-19T18:56:29.500Z,0.85
2022-10-19T18:58:57.081Z,1.10
2022-10-19T19:01:28.700Z,2.10
2022-10-19T19:06:26.068Z,1.52
2022-10-19T19:09:01.037Z,2.13
2022-10-19T19:11:32.966Z,1.40
2022-10-19T19:14:06.636Z,1.00
2022-10-19T19:16:36.898Z,0.73
2022-10-19T19:19:04.914Z,0.70
2022-10-19T19:21:33.017Z,0.90
2022-10-19T19:24:02.240Z,0.82
2022-10-19T19:26:32.411Z,1.25
2022-10-19T19:28:59.905Z,1.20
2022-10-19T19:31:26.822Z,0.80
2022-10-19T19:33:53.850Z,1.00
2022-10-19T19:36:21.229Z,0.88
2022-10-19T19:38:50.655Z,1.52
2022-10-19T19:41:17.955Z,2.35
2022-10-19T19:43:45.384Z,1.15
2022-10-19T19:46:16.581Z,0.80
2022-10-19T19:48:45.917Z,1.05
2022-10-19T19:51:18.639Z,0.80
2022-10-19T19:53:46.507Z,0.88
2022-10-19T19:56:14.850Z,0.80
2022-10-19T19:58:42.777Z,0.80
2022-10-19T20:01:15.868Z,0.93
2022-10-19T20:03:43.379Z,0.70
2022-10-19T20:06:10.916Z,0.80
2022-10-19T20:08:38.536Z,0.90
2022-10-19T20:11:07.777Z,0.90
2022-10-19T20:13:35.287Z,0.85
2022-10-19T20:16:14.950Z,1.17
2022-10-19T20:18:45.112Z,1.10
2022-10-19T20:21:12.312Z,1.90
2022-10-19T20:23:39.120Z,1.00
2022-10-19T20:26:06.177Z,1.00
2022-10-19T20:28:33.518Z,0.70
2022-10-19T20:31:05.919Z,1.67
2022-10-19T20:33:34.962Z,1.33
2022-10-19T20:36:09.602Z,1.00
2022-10-19T20:38:38.628Z,2.47
2022-10-19T20:41:09.759Z,3.58
2022-10-19T20:43:37.761Z,4.20
2022-10-19T20:46:08.482Z,4.03
2022-10-19T20:48:35.336Z,4.38
2022-10-19T20:51:27.529Z,4.70
2022-10-19T20:53:59.190Z,4.70
2022-10-19T20:56:28.836Z,4.55
2022-10-19T21:01:30.450Z,8.13
2022-10-19T21:03:59.032Z,4.45
2022-10-19T21:06:28.551Z,5.18
2022-10-19T21:08:55.545Z,5.78
2022-10-19T21:11:27.025Z,5.03
2022-10-19T21:13:59.329Z,4.82
2022-10-19T21:16:30.340Z,5.00
2022-10-19T21:18:57.575Z,4.80
2022-10-19T21:21:36.226Z,5.20
2022-10-19T21:24:10.704Z,5.10
2022-10-19T21:26:38.349Z,4.18
2022-10-19T21:29:09.507Z,4.68
2022-10-19T21:31:38.206Z,4.40
2022-10-19T21:34:06.868Z,4.03
2022-10-19T21:36:34.297Z,4.40
2022-10-19T21:39:01.523Z,4.80
2022-10-19T21:41:28.497Z,4.80
2022-10-19T21:43:55.420Z,3.28
2022-10-19T21:46:23.644Z,3.70
2022-10-19T21:48:51.242Z,3.60
2022-10-19T21:51:32.754Z,3.80
2022-10-19T21:53:59.767Z,5.60
2022-10-19T21:56:26.787Z,5.95
2022-10-19T21:58:54.304Z,6.18
2022-10-19T22:01:24.276Z,8.05
2022-10-19T22:03:59.244Z,7.68
2022-10-19T22:06:28.948Z,7.50
2022-10-19T22:08:56.212Z,7.75
2022-10-19T22:11:23.356Z,7.75
2022-10-19T22:13:54.290Z,8.48
2022-10-19T22:16:21.146Z,8.02
2022-10-19T22:18:48.631Z,7.13
2022-10-19T22:21:18.612Z,6.00
2022-10-19T22:23:45.453Z,5.90
2022-10-19T22:26:14.134Z,5.38
2022-10-19T22:28:40.983Z,5.32
2022-10-19T22:31:07.960Z,4.53
2022-10-19T22:33:35.769Z,5.50
2022-10-19T22:36:06.072Z,4.53
2022-10-19T22:38:33.499Z,5.15
2022-10-19T22:41:00.450Z,5.35
2022-10-19T22:43:27.460Z,7.07
2022-10-19T22:45:54.349Z,4.68
2022-10-19T22:48:21.237Z,5.43
2022-10-19T22:50:48.215Z,5.90
2022-10-19T22:53:15.097Z,4.93
2022-10-19T22:55:41.928Z,5.93
2022-10-19T22:58:09.496Z,5.18
2022-10-19T23:00:36.806Z,5.30
2022-10-19T23:03:03.773Z,4.60
2022-10-19T23:05:30.766Z,4.68
2022-10-19T23:07:57.679Z,5.10
2022-10-19T23:10:24.548Z,4.80
2022-10-19T23:12:52.879Z,4.50
2022-10-19T23:15:21.354Z,4.85
2022-10-19T23:17:48.257Z,4.82
2022-10-19T23:20:15.373Z,5.07
2022-10-19T23:22:42.194Z,4.95
2022-10-19T23:25:09.995Z,4.35
2022-10-19T23:27:37.375Z,4.32
2022-10-19T23:30:05.382Z,3.90
2022-10-19T23:32:32.249Z,4.63
2022-10-19T23:34:59.090Z,4.10
2022-10-19T23:37:25.920Z,3.97
2022-10-19T23:39:52.699Z,3.47
2022-10-19T23:42:19.502Z,3.53
2022-10-19T23:44:46.368Z,3.28
2022-10-19T23:48:09.433Z,3.80
2022-10-19T23:50:36.260Z,3.40
2022-10-19T23:53:03.270Z,2.20
2022-10-19T23:55:30.139Z,1.52
2022-10-19T23:57:56.974Z,1.02
